createdAt,value
2017-10-20T00:01:05.328Z,10.40
2017-10-20T00:03:32.803Z,14.18
2017-10-20T00:06:00.279Z,12.60
2017-10-20T00:08:27.776Z,12.90
2017-10-20T00:10:55.237Z,23.25
2017-10-20T00:13:22.805Z,12.68
2017-10-20T00:15:50.267Z,10.93
2017-10-20T00:18:17.812Z,13.10
2017-10-20T00:20:46.032Z,11.35
2017-10-20T00:23:13.539Z,11.93
2017-10-20T00:25:41.038Z,13.00
2017-10-20T00:28:08.527Z,10.75
2017-10-20T00:30:36.024Z,11.12
2017-10-20T00:33:03.485Z,13.75
2017-10-20T00:35:31.000Z,14.93
2017-10-20T00:37:58.467Z,16.67
2017-10-20T00:40:26.738Z,11.68
2017-10-20T00:42:54.239Z,8.38
2017-10-20T00:45:21.707Z,9.77
2017-10-20T00:47:49.197Z,12.60
2017-10-20T00:50:16.673Z,9.38
2017-10-20T00:52:44.927Z,8.52
2017-10-20T00:55:12.398Z,11.12
2017-10-20T00:57:39.886Z,14.00
2017-10-20T01:00:08.177Z,12.90
2017-10-20T01:02:35.655Z,10.27
2017-10-20T01:05:03.160Z,14.63
2017-10-20T01:07:30.640Z,11.23
2017-10-20T01:09:58.909Z,14.48
2017-10-20T01:12:27.144Z,14.48
2017-10-20T01:14:54.627Z,11.52
2017-10-20T01:17:22.107Z,13.43
2017-10-20T01:19:50.379Z,13.85
2017-10-20T01:22:18.671Z,12.37
2017-10-20T01:24:46.899Z,9.07
2017-10-20T01:27:14.409Z,18.40
2017-10-20T01:29:42.631Z,15.13
2017-10-20T01:32:10.128Z,10.10
2017-10-20T01:34:38.387Z,14.38
2017-10-20T01:37:05.875Z,13.30
2017-10-20T01:39:34.127Z,13.75
2017-10-20T01:42:02.360Z,12.07
2017-10-20T01:44:29.850Z,16.08
2017-10-20T01:46:57.356Z,12.35
2017-10-20T01:49:24.860Z,11.43
2017-10-20T01:51:52.355Z,11.02
2017-10-20T01:54:20.599Z,15.52
2017-10-20T01:56:48.097Z,12.15
2017-10-20T01:59:16.323Z,13.57
2017-10-20T02:01:43.815Z,10.98
2017-10-20T02:04:12.072Z,16.40
2017-10-20T02:06:39.587Z,11.23
2017-10-20T02:09:07.055Z,14.95
2017-10-20T02:11:34.599Z,12.60
2017-10-20T02:14:02.068Z,18.58
2017-10-20T02:16:29.593Z,11.02
2017-10-20T02:18:57.817Z,20.98
2017-10-20T02:21:25.275Z,19.20
2017-10-20T02:23:52.790Z,13.57
2017-10-20T02:26:21.047Z,9.45
2017-10-20T02:28:48.543Z,15.18
2017-10-20T02:31:16.041Z,15.30
2017-10-20T02:33:43.503Z,18.23
2017-10-20T02:36:11.020Z,15.32
2017-10-20T02:38:38.499Z,11.93
2017-10-20T02:41:05.995Z,9.48
2017-10-20T02:43:33.505Z,15.20
2017-10-20T02:46:00.998Z,15.48
2017-10-20T02:48:28.455Z,21.05
2017-10-20T02:50:55.952Z,16.52
2017-10-20T02:53:24.210Z,13.62
2017-10-20T02:55:51.675Z,15.20
2017-10-20T02:58:20.020Z,12.65
2017-10-20T03:00:47.488Z,16.83
2017-10-20T03:03:14.992Z,13.45
2017-10-20T03:05:42.477Z,16.00
2017-10-20T03:08:09.947Z,14.50
2017-10-20T03:10:37.432Z,14.80
2017-10-20T03:13:04.938Z,12.35
2017-10-20T03:15:32.427Z,18.98
2017-10-20T03:17:59.887Z,12.40
2017-10-20T03:20:27.403Z,14.95
2017-10-20T03:22:55.631Z,11.93
2017-10-20T03:25:23.119Z,13.93
2017-10-20T03:27:51.351Z,16.20
2017-10-20T03:30:18.844Z,14.23
2017-10-20T03:32:46.363Z,17.40
2017-10-20T03:35:13.835Z,16.92
2017-10-20T03:37:41.331Z,16.05
2017-10-20T03:40:09.586Z,23.98
2017-10-20T03:42:37.067Z,17.80
2017-10-20T03:45:05.344Z,17.12
2017-10-20T03:47:33.563Z,15.98
2017-10-20T03:50:01.059Z,18.87
2017-10-20T03:52:28.539Z,17.27
2017-10-20T03:54:56.856Z,17.55
2017-10-20T03:57:24.332Z,18.42
2017-10-20T03:59:51.810Z,20.42
2017-10-20T04:02:19.328Z,21.77
2017-10-20T04:04:46.816Z,23.95
2017-10-20T04:07:14.324Z,24.23
2017-10-20T04:09:41.816Z,28.35
2017-10-20T04:12:09.319Z,25.00
2017-10-20T04:14:37.559Z,22.52
2017-10-20T04:17:05.080Z,32.33
2017-10-20T04:19:32.569Z,32.58
2017-10-20T04:22:00.074Z,21.67
2017-10-20T04:24:28.329Z,29.25
2017-10-20T04:26:55.815Z,28.35
2017-10-20T04:29:24.087Z,37.90
2017-10-20T04:31:52.356Z,31.55
2017-10-20T04:34:19.848Z,31.62
2017-10-20T04:36:47.320Z,32.40
2017-10-20T04:39:14.820Z,32.33
2017-10-20T04:41:42.304Z,32.67
2017-10-20T04:44:10.560Z,40.30
2017-10-20T04:46:38.048Z,33.13
2017-10-20T04:49:06.317Z,34.55
2017-10-20T04:51:34.550Z,47.92
2017-10-20T04:54:02.055Z,39.55
2017-10-20T04:56:30.308Z,69.65
2017-10-20T04:58:57.809Z,60.83
2017-10-20T05:01:25.303Z,51.28
2017-10-20T05:03:52.829Z,50.42
2017-10-20T05:06:20.320Z,53.30
2017-10-20T05:08:47.803Z,59.60
2017-10-20T05:11:15.292Z,44.08
2017-10-20T05:13:42.797Z,48.03
2017-10-20T05:16:10.287Z,87.90
2017-10-20T05:18:37.791Z,63.45
2017-10-20T05:21:05.276Z,60.38
2017-10-20T05:23:32.787Z,89.53
2017-10-20T05:26:00.278Z,62.65
2017-10-20T05:28:27.777Z,64.47
2017-10-20T05:30:56.024Z,54.67
2017-10-20T05:33:23.531Z,61.65
2017-10-20T05:35:51.898Z,80.20
2017-10-20T05:38:20.201Z,84.32
2017-10-20T05:40:47.715Z,60.67
2017-10-20T05:43:15.196Z,69.57
2017-10-20T05:45:43.423Z,76.05
2017-10-20T05:48:10.931Z,69.65
2017-10-20T05:50:39.178Z,58.83
2017-10-20T05:53:06.695Z,68.07
2017-10-20T05:55:34.162Z,64.97
2017-10-20T05:58:01.667Z,61.90
2017-10-20T06:00:29.187Z,71.50
2017-10-20T06:02:56.717Z,59.05
2017-10-20T06:05:24.943Z,57.53
2017-10-20T06:07:52.431Z,46.80
2017-10-20T06:10:20.717Z,51.28
2017-10-20T06:12:48.949Z,55.67
2017-10-20T06:15:16.452Z,44.35
2017-10-20T06:17:44.742Z,47.13
2017-10-20T06:20:12.259Z,50.78
2017-10-20T06:22:39.735Z,58.60
2017-10-20T06:25:08.004Z,56.37
2017-10-20T06:27:35.488Z,48.83
2017-10-20T06:30:02.984Z,47.27
2017-10-20T06:32:30.470Z,55.90
2017-10-20T06:34:58.009Z,60.28
2017-10-20T06:37:25.480Z,64.53
2017-10-20T06:39:52.982Z,57.45
2017-10-20T06:42:21.246Z,41.03
2017-10-20T06:44:49.493Z,39.33
2017-10-20T06:47:17.009Z,43.13
2017-10-20T06:49:44.489Z,37.40
2017-10-20T06:52:11.999Z,39.97
2017-10-20T06:54:40.269Z,38.38
2017-10-20T06:57:07.739Z,38.35
2017-10-20T06:59:36.000Z,40.50
2017-10-20T07:02:03.482Z,39.78
2017-10-20T07:04:31.014Z,38.95
2017-10-20T07:06:58.503Z,36.15
2017-10-20T07:09:26.780Z,34.72
2017-10-20T07:11:55.039Z,35.38
2017-10-20T07:14:22.517Z,37.03
2017-10-20T07:16:50.012Z,39.65
2017-10-20T07:22:22.231Z,47.38
2017-10-20T07:24:49.758Z,43.50
2017-10-20T07:27:17.268Z,58.50
2017-10-20T07:29:45.548Z,36.50
2017-10-20T07:32:14.449Z,40.10
2017-10-20T07:34:42.704Z,40.05
2017-10-20T07:37:10.208Z,37.10
2017-10-20T07:39:37.678Z,35.87
2017-10-20T07:42:05.196Z,40.70
2017-10-20T07:44:33.459Z,39.65
2017-10-20T07:47:00.983Z,42.15
2017-10-20T07:49:28.465Z,41.03
2017-10-20T07:51:55.942Z,37.80
2017-10-20T07:54:24.240Z,32.87
2017-10-20T07:56:51.749Z,34.90
2017-10-20T07:59:19.243Z,34.93
2017-10-20T08:01:47.470Z,36.63
2017-10-20T08:04:14.967Z,42.73
2017-10-20T08:06:43.260Z,41.85
2017-10-20T08:09:11.496Z,42.90
2017-10-20T08:11:39.036Z,34.00
2017-10-20T08:14:06.532Z,30.97
2017-10-20T08:16:34.806Z,35.10
2017-10-20T08:19:02.301Z,33.93
2017-10-20T08:21:29.820Z,32.60
2017-10-20T08:23:57.311Z,25.97
2017-10-20T08:26:25.596Z,31.83
2017-10-20T08:28:53.068Z,31.03
2017-10-20T08:31:20.567Z,26.37
2017-10-20T08:33:48.067Z,27.33
2017-10-20T08:36:16.341Z,25.60
2017-10-20T08:38:44.616Z,29.40
2017-10-20T08:41:12.843Z,25.63
2017-10-20T08:43:40.367Z,29.17
2017-10-20T08:46:08.607Z,28.10
2017-10-20T08:48:37.576Z,26.13
2017-10-20T08:51:05.091Z,28.13
2017-10-20T08:53:32.583Z,21.73
2017-10-20T08:56:00.106Z,23.10
2017-10-20T08:58:28.329Z,22.83
2017-10-20T09:00:55.844Z,24.10
2017-10-20T09:03:23.334Z,21.93
2017-10-20T09:05:50.860Z,25.97
2017-10-20T09:08:19.128Z,27.57
2017-10-20T09:10:47.356Z,28.80
2017-10-20T09:13:14.859Z,24.47
2017-10-20T09:15:43.582Z,23.90
2017-10-20T09:18:11.100Z,24.23
2017-10-20T09:20:38.570Z,19.97
2017-10-20T09:23:06.849Z,26.33
2017-10-20T09:25:35.112Z,22.60
2017-10-20T09:28:02.609Z,23.23
2017-10-20T09:30:30.102Z,22.03
2017-10-20T09:32:57.611Z,25.70
2017-10-20T09:35:25.144Z,23.63
2017-10-20T09:37:52.673Z,21.07
2017-10-20T09:40:20.623Z,27.97
2017-10-20T09:42:48.122Z,22.67
2017-10-20T09:45:15.662Z,24.17
2017-10-20T09:47:43.443Z,24.60
2017-10-20T09:50:10.937Z,25.27
2017-10-20T09:52:39.187Z,27.53
2017-10-20T09:55:06.963Z,22.03
2017-10-20T09:57:35.330Z,25.53
2017-10-20T10:00:02.871Z,28.50
2017-10-20T10:02:30.364Z,20.53
2017-10-20T10:04:58.630Z,18.60
2017-10-20T10:07:27.611Z,18.53
2017-10-20T10:09:55.096Z,19.70
2017-10-20T10:12:23.353Z,16.77
2017-10-20T10:14:51.591Z,16.13
2017-10-20T10:17:19.087Z,23.57
2017-10-20T10:19:48.086Z,18.07
2017-10-20T10:22:15.583Z,21.70
2017-10-20T10:24:43.067Z,18.73
2017-10-20T10:27:10.598Z,21.43
2017-10-20T10:29:38.849Z,24.33
2017-10-20T10:32:06.351Z,21.03
2017-10-20T10:34:33.841Z,25.90
2017-10-20T10:37:01.311Z,25.00
2017-10-20T10:39:30.321Z,18.90
2017-10-20T10:41:58.554Z,20.03
2017-10-20T10:44:26.106Z,16.73
2017-10-20T10:46:53.566Z,20.83
2017-10-20T10:49:21.052Z,20.87
2017-10-20T10:51:48.551Z,15.80
2017-10-20T10:54:16.574Z,17.70
2017-10-20T10:56:44.100Z,14.83
2017-10-20T10:59:11.612Z,14.50
2017-10-20T11:01:40.962Z,14.20
2017-10-20T11:04:08.511Z,14.00
2017-10-20T11:06:47.936Z,12.50
2017-10-20T11:09:19.020Z,13.70
2017-10-20T11:11:58.523Z,16.67
2017-10-20T11:14:26.779Z,15.07
2017-10-20T11:16:54.254Z,8.07
2017-10-20T11:19:22.505Z,6.40
2017-10-20T11:21:49.984Z,11.40
2017-10-20T11:24:18.264Z,19.30
2017-10-20T11:26:46.476Z,4.77
2017-10-20T11:29:13.971Z,5.20
2017-10-20T11:31:41.487Z,6.23
2017-10-20T11:34:08.980Z,5.40
2017-10-20T11:36:36.456Z,4.53
2017-10-20T11:39:03.937Z,6.77
2017-10-20T11:41:32.206Z,4.93
2017-10-20T11:44:00.467Z,4.87
2017-10-20T11:46:27.948Z,5.40
2017-10-20T11:48:56.180Z,9.60
2017-10-20T11:51:23.660Z,6.80
2017-10-20T11:53:51.131Z,4.93
2017-10-20T11:56:19.396Z,4.53
2017-10-20T11:58:46.862Z,6.63
2017-10-20T12:01:15.107Z,6.23
2017-10-20T12:03:42.612Z,5.83
2017-10-20T12:06:10.851Z,6.23
2017-10-20T12:08:38.365Z,8.03
2017-10-20T12:11:05.843Z,9.70
2017-10-20T12:13:33.340Z,5.70
2017-10-20T12:16:00.818Z,6.80
2017-10-20T12:18:29.088Z,8.07
2017-10-20T12:20:57.341Z,8.17
2017-10-20T12:23:24.811Z,8.50
2017-10-20T12:25:52.328Z,10.77
2017-10-20T12:28:19.799Z,7.37
2017-10-20T12:30:47.290Z,9.10
2017-10-20T12:33:15.611Z,8.17
2017-10-20T12:35:43.118Z,5.27
2017-10-20T12:38:10.631Z,9.10
2017-10-20T12:40:39.679Z,10.20
2017-10-20T12:43:07.219Z,4.70
2017-10-20T12:45:34.690Z,8.17
2017-10-20T12:48:02.184Z,9.43
2017-10-20T12:50:29.687Z,10.90
2017-10-20T12:52:57.184Z,7.77
2017-10-20T12:55:25.424Z,5.30
2017-10-20T12:57:52.923Z,9.90
2017-10-20T13:00:21.192Z,8.03
2017-10-20T13:02:48.656Z,8.73
2017-10-20T13:05:16.916Z,19.60
2017-10-20T13:07:44.419Z,10.13
2017-10-20T13:10:11.876Z,5.53
2017-10-20T13:12:39.375Z,8.67
2017-10-20T13:15:06.856Z,9.37
2017-10-20T13:17:34.351Z,7.17
2017-10-20T13:20:01.807Z,4.57
2017-10-20T13:22:29.301Z,5.30
2017-10-20T13:24:56.789Z,9.17
2017-10-20T13:27:24.284Z,17.43
2017-10-20T13:29:51.743Z,9.90
2017-10-20T13:32:19.230Z,10.63
2017-10-20T14:04:37.407Z,7.00
2017-10-20T14:07:04.881Z,11.97
2017-10-20T14:09:33.181Z,6.77
2017-10-20T14:12:00.639Z,8.07
2017-10-20T14:14:28.112Z,7.80
2017-10-20T14:16:55.640Z,10.23
2017-10-20T14:19:23.880Z,7.90
2017-10-20T14:21:51.387Z,8.67
2017-10-20T14:24:19.639Z,8.27
2017-10-20T14:26:47.138Z,8.90
2017-10-20T14:29:14.644Z,9.93
2017-10-20T14:31:42.172Z,8.13
2017-10-20T14:34:09.667Z,6.07
2017-10-20T14:36:37.171Z,9.57
2017-10-20T14:39:04.705Z,6.27
2017-10-20T14:41:32.970Z,7.03
2017-10-20T14:44:01.228Z,5.93
2017-10-20T14:46:28.724Z,11.10
2017-10-20T14:48:56.949Z,6.43
2017-10-20T14:51:24.467Z,6.83
2017-10-20T14:53:51.948Z,14.87
2017-10-20T14:56:19.455Z,9.37
2017-10-20T14:58:46.950Z,9.50
2017-10-20T15:01:14.453Z,7.93
2017-10-20T15:03:41.970Z,7.77
2017-10-20T15:06:09.454Z,9.10
2017-10-20T15:08:36.998Z,9.47
2017-10-20T15:11:04.469Z,7.93
2017-10-20T15:13:32.056Z,9.20
2017-10-20T15:15:59.548Z,9.40
2017-10-20T15:18:27.816Z,9.83
2017-10-20T15:20:56.089Z,7.40
2017-10-20T15:23:23.572Z,10.23
2017-10-20T15:25:51.857Z,9.70
2017-10-20T15:28:19.311Z,13.07
2017-10-20T15:30:46.820Z,7.90
2017-10-20T15:33:14.307Z,8.20
2017-10-20T15:35:43.211Z,8.13
2017-10-20T15:38:11.457Z,8.73
2017-10-20T15:40:38.974Z,14.83
2017-10-20T15:43:06.459Z,8.60
2017-10-20T15:45:33.917Z,11.20
2017-10-20T15:48:01.444Z,6.93
2017-10-20T15:50:29.397Z,8.43
2017-10-20T15:52:56.957Z,18.10
2017-10-20T15:55:25.223Z,8.70
2017-10-20T15:57:53.489Z,11.73
2017-10-20T16:00:20.995Z,7.40
2017-10-20T16:02:48.477Z,10.17
2017-10-20T16:05:15.972Z,11.00
2017-10-20T16:07:44.210Z,12.97
2017-10-20T16:10:11.695Z,11.73
2017-10-20T16:12:40.691Z,16.57
2017-10-20T16:15:08.240Z,14.10
2017-10-20T16:17:36.484Z,8.13
2017-10-20T16:20:03.963Z,11.80
2017-10-20T16:22:31.468Z,10.43
2017-10-20T16:24:58.942Z,13.23
2017-10-20T16:27:26.471Z,12.53
2017-10-20T16:29:54.697Z,10.10
2017-10-20T16:32:22.201Z,9.57
2017-10-20T16:34:50.442Z,14.33
2017-10-20T16:37:17.910Z,9.70
2017-10-20T16:39:46.919Z,17.97
2017-10-20T16:42:15.075Z,11.40
2017-10-20T16:44:42.605Z,7.23
2017-10-20T16:47:10.088Z,17.10
2017-10-20T16:49:37.580Z,7.83
2017-10-20T16:52:05.861Z,11.23
2017-10-20T16:54:33.381Z,16.20
2017-10-20T16:57:00.843Z,11.30
2017-10-20T16:59:28.337Z,21.47
2017-10-20T17:01:56.601Z,7.83
2017-10-20T17:04:24.068Z,10.47
2017-10-20T17:06:52.364Z,10.73
2017-10-20T17:09:19.879Z,8.20
2017-10-20T17:11:47.348Z,12.30
2017-10-20T17:14:16.524Z,8.80
2017-10-20T17:16:44.020Z,10.60
2017-10-20T17:19:12.319Z,14.43
2017-10-20T17:21:40.610Z,11.50
2017-10-20T17:24:08.154Z,16.10
2017-10-20T17:26:36.403Z,8.97
2017-10-20T17:29:04.660Z,11.23
2017-10-20T17:31:32.175Z,15.13
2017-10-20T17:33:59.659Z,10.67
2017-10-20T17:36:27.168Z,10.53
2017-10-20T17:38:55.421Z,6.73
2017-10-20T17:41:22.918Z,16.03
2017-10-20T17:43:51.175Z,9.23
2017-10-20T17:46:19.404Z,9.50
2017-10-20T17:48:46.911Z,17.80
2017-10-20T17:51:15.139Z,12.63
2017-10-20T17:53:42.664Z,16.10
2017-10-20T17:56:10.428Z,15.83
2017-10-20T17:58:37.908Z,8.17
2017-10-20T18:01:05.387Z,13.20
2017-10-20T18:03:32.882Z,9.27
2017-10-20T18:06:01.163Z,8.57
2017-10-20T18:08:29.392Z,8.10
2017-10-20T18:10:56.918Z,13.60
2017-10-20T18:13:25.160Z,6.80
2017-10-20T18:15:54.178Z,14.17
2017-10-20T18:18:22.419Z,10.00
2017-10-20T18:20:49.893Z,7.30
2017-10-20T18:23:18.904Z,8.37
2017-10-20T18:25:47.150Z,9.83
2017-10-20T18:28:14.652Z,12.03
2017-10-20T18:30:42.128Z,10.47
2017-10-20T18:33:09.608Z,12.57
2017-10-20T18:35:37.111Z,12.83
2017-10-20T18:38:05.358Z,10.30
2017-10-20T18:40:34.393Z,9.87
2017-10-20T18:43:02.627Z,9.10
2017-10-20T18:45:30.139Z,14.57
2017-10-20T18:47:57.626Z,10.53
2017-10-20T18:50:25.110Z,14.07
2017-10-20T18:52:52.615Z,11.50
2017-10-20T18:55:20.122Z,10.37
2017-10-20T18:57:47.646Z,14.30
2017-10-20T19:00:15.107Z,17.93
2017-10-20T19:02:42.649Z,18.73
2017-10-20T19:05:10.879Z,30.17
2017-10-20T19:07:38.371Z,25.27
2017-10-20T19:10:06.628Z,15.97
2017-10-20T19:12:34.103Z,16.23
2017-10-20T19:15:02.363Z,16.37
2017-10-20T19:17:31.372Z,13.27
2017-10-20T19:19:59.609Z,14.30
2017-10-20T19:22:27.147Z,11.70
2017-10-20T19:24:54.664Z,13.23
2017-10-20T19:27:22.927Z,12.53
2017-10-20T19:29:50.391Z,8.50
2017-10-20T19:32:18.638Z,10.90
2017-10-20T19:34:46.148Z,8.07
2017-10-20T19:37:14.415Z,9.50
2017-10-20T19:39:42.672Z,9.00
2017-10-20T19:42:10.135Z,10.30
2017-10-20T19:44:38.539Z,6.97
2017-10-20T19:47:06.007Z,10.30
2017-10-20T19:49:33.500Z,6.20
2017-10-20T19:52:01.003Z,9.53
2017-10-20T19:54:29.267Z,13.67
2017-10-20T19:56:57.539Z,6.50
2017-10-20T19:59:25.044Z,14.33
2017-10-20T20:01:52.552Z,9.90
2017-10-20T20:04:20.023Z,10.80
2017-10-20T20:06:48.252Z,7.63
2017-10-20T20:09:15.752Z,12.47
2017-10-20T20:11:43.262Z,9.10
2017-10-20T20:14:10.792Z,12.37
2017-10-20T20:16:39.015Z,9.13
2017-10-20T20:19:06.564Z,8.83
2017-10-20T20:21:34.056Z,10.10
2017-10-20T20:24:01.534Z,9.13
2017-10-20T20:26:29.795Z,9.13
2017-10-20T20:28:57.270Z,17.30
2017-10-20T20:31:40.407Z,10.13
2017-10-20T20:34:21.460Z,14.57
2017-10-20T20:36:48.971Z,12.30
2017-10-20T20:39:16.475Z,13.10
2017-10-20T20:41:43.963Z,14.70
2017-10-20T20:44:12.241Z,20.80
2017-10-20T20:46:39.749Z,11.80
2017-10-20T20:49:07.247Z,11.17
2017-10-20T20:51:35.475Z,12.20
2017-10-20T20:54:02.996Z,12.87
2017-10-20T20:56:30.482Z,11.53
2017-10-20T20:58:58.010Z,12.50
2017-10-20T21:01:26.244Z,12.53
2017-10-20T21:03:53.736Z,10.37
2017-10-20T21:06:22.020Z,10.50
2017-10-20T21:08:50.245Z,9.63
2017-10-20T21:11:17.729Z,12.10
2017-10-20T21:13:45.221Z,7.30
2017-10-20T21:16:13.448Z,9.63
2017-10-20T21:18:40.972Z,5.90
2017-10-20T21:21:08.442Z,8.87
2017-10-20T21:23:35.940Z,9.43
2017-10-20T21:26:03.420Z,11.77
2017-10-20T21:28:31.692Z,18.07
2017-10-20T21:30:59.967Z,10.47
2017-10-20T21:33:28.204Z,14.20
2017-10-20T21:35:55.707Z,15.20
2017-10-20T21:38:23.959Z,13.23
2017-10-20T21:40:51.459Z,14.07
2017-10-20T21:43:18.941Z,12.17
2017-10-20T21:45:46.493Z,10.87
2017-10-20T21:48:14.362Z,11.90
2017-10-20T21:50:41.869Z,15.47
2017-10-20T21:53:09.362Z,10.97
2017-10-20T21:55:36.841Z,13.50
2017-10-20T21:58:04.352Z,11.30
2017-10-20T22:00:32.592Z,11.60
2017-10-20T22:03:00.108Z,18.73
2017-10-20T22:05:28.363Z,11.50
2017-10-20T22:07:55.829Z,12.63
2017-10-20T22:10:24.114Z,9.53
2017-10-20T22:12:52.362Z,8.20
2017-10-20T22:15:22.364Z,10.50
2017-10-20T22:17:51.383Z,16.90
2017-10-20T22:20:18.927Z,20.47
2017-10-20T22:22:46.387Z,10.23
2017-10-20T22:25:13.851Z,17.80
2017-10-20T22:27:41.355Z,16.00
2017-10-20T22:30:08.826Z,10.53
2017-10-20T22:32:36.352Z,13.63
2017-10-20T22:35:04.589Z,22.67
2017-10-20T22:37:32.062Z,13.03
2017-10-20T22:39:59.589Z,9.83
2017-10-20T22:42:27.060Z,15.83
2017-10-20T22:44:54.542Z,9.33
2017-10-20T22:47:23.533Z,9.70
2017-10-20T22:49:51.048Z,12.27
2017-10-20T22:52:18.509Z,13.30
2017-10-20T22:54:45.992Z,9.67
2017-10-20T22:57:13.463Z,11.87
2017-10-20T22:59:40.914Z,10.23
2017-10-20T23:02:08.410Z,8.80
2017-10-20T23:04:35.884Z,31.57
2017-10-20T23:07:03.414Z,13.57
2017-10-20T23:09:30.875Z,10.07
2017-10-20T23:11:59.139Z,12.13
2017-10-20T23:14:26.620Z,9.63
2017-10-20T23:16:54.864Z,11.80
2017-10-20T23:19:22.350Z,21.40
2017-10-20T23:21:50.587Z,11.70
2017-10-20T23:24:18.099Z,14.97
2017-10-20T23:26:46.330Z,12.27
2017-10-20T23:29:13.799Z,13.90
2017-10-20T23:31:41.305Z,12.73
2017-10-20T23:34:08.772Z,10.87
2017-10-20T23:36:36.306Z,12.07
2017-10-20T23:39:04.560Z,12.10
2017-10-20T23:41:32.079Z,24.13
2017-10-20T23:43:59.547Z,14.63
2017-10-20T23:46:27.032Z,20.40
2017-10-20T23:48:54.557Z,26.23
2017-10-20T23:51:22.034Z,14.93
2017-10-20T23:53:49.540Z,13.47
2017-10-20T23:56:17.016Z,13.70
2017-10-20T23:58:44.518Z,12.70
